Aérodrome :







RETROUVEZ-NOUS SUR...

 
LOGIN :

S'inscrire | Disclaimer

   EN    FR    IT 

 









Légende :    VFR   VFR Marginal   IFR   IFR Intensif   IFR Très Intensif
Visi : 
Plafond : 
>= 8 km
>= 3000ft
5 à 8 km
1000 à 3000 ft
1500m à 5 km
500 à 1000 ft
800 à 1500m
200 à 500 ft
< 800m
< 200 ft
Symboles :   Orages  Brouillard  Fortes neiges  Fortes précipitations  Vent > 20 kt






- Altitude de l'aérodrome : 237 ft
- Code IATA : BQN


TJBQ - Rafael Hernandez

DERNIER METAR :
  • 162350Z 11011G16KT 10SM CLR 24/ A3002

METARs EXPIRÉS :
  • 162250Z 10015G23KT 10SM BKN020 BKN028 25/ A3001
  • 162150Z 09020G25KT 10SM SCT020 26/ A2999

TAF TJBQ
Valide du 17 à 00h jusqu'au 18 à 00h UTC


162340Z 1700/1724 10015KT P6SM SCT024 BKN050
TEMPO 1700/1702 BKN020
FM170800 10010KT P6SM FEW025
FM171400 09018KT P6SM VCSH SCT025 SCT040
FM172300 10012KT P6SM FEW025 AMD NOT SKED 1702/1711



MET'MAP, la Météo Aéronautique d'un coup d'oeil ! - Copyright ORBIFLY Décembre 2007 - Disclaimer

ORBIFLY MET'MAP TEAM :

Programmation & Développement : Alexandra Zaïnal
Sur une idée originale de : Baudouin d'Aumeries
Assistance à la programmation : Marc-Olivier Méhu
Soutien technique & logistique : Manuel Goepfert

Contact : metmap@orbifly.com




SOURCES & CREDITS :

   NOAA